• Join FlightAware (Why Join?)
  • Login
  • US Flag 
02:19AM EDT


 

Airport Tracker/Info


-or-


 

Live Flight TrackerFlight Track Log ✈ AAR8734 ✈ 10-Jul-2014 ✈ RKJY / RSU - RKSS / GMP

Flight Track Log - Related Links

Times and Time Zones

All times are in EDT time to prevent confusion due to time zone crossing. See the AAR8734 flight status page for this flight to view local times or setup timezone preferences in your user account.

Time Position Orientation Groundspeed Altitude Reporting Facility
EDT Latitude Longitude Course Direction KTS MPH feet Rate Location/Type
10:26PM 35.1268 127.5310 346° North  Level Estimated
10:27PM 35.1986 127.5098 346° North  Level Estimated
10:28PM 35.2703 127.4886 346° North  Level Estimated
10:29PM 35.3421 127.4673 346° North  Level Estimated
10:30PM 35.4138 127.4460 346° North  Level Estimated
10:31PM 35.4856 127.4247 346° North  Level Estimated
10:32PM 35.5573 127.4033 346° North  Level Estimated
10:32PM 35.1900 126.8789 338° Northwest 404 465 19,900  Level FlightAware ADS-B (RKSO / OSN)
10:33PM 35.6290 127.3819 346° North  Level Estimated
10:33PM 35.2609 126.8779 North 429 494 20,500  Level FlightAware ADS-B (RKSO / OSN)
10:33PM 35.3427 126.8879 North 443 510 21,000 360 Climbing FlightAware ADS-B (RKSO / OSN)
10:34PM 35.4195 126.8967 North 445 512 21,000  Level FlightAware ADS-B (RKSO / OSN)
10:35PM 35.4895 126.9052 North 444 511 21,000  Level FlightAware ADS-B (RKSO / OSN)
10:35PM 35.5773 126.9149 North 447 514 21,000  Level FlightAware ADS-B (RKSO / OSN)
10:36PM 35.6677 126.9245 North 416 479 21,000  Level FlightAware ADS-B (RKSO / OSN)
10:37PM 35.7364 126.9321 North 381 438 21,000  Level FlightAware ADS-B (RKSO / OSN)
10:37PM 35.8107 126.9402 North 373 429 21,000  Level FlightAware ADS-B (RKSO / OSN)
10:38PM 35.8745 126.9474 North 371 427 21,000  Level FlightAware ADS-B (RKSO / OSN)
10:39PM 35.9464 126.9551 North 363 418 21,000  Level FlightAware ADS-B (RKSO / OSN)
10:39PM 36.0115 126.9623 North 363 418 21,000  Level FlightAware ADS-B (RKSO / OSN)
10:40PM 36.0709 126.9689 North 363 418 21,000  Level FlightAware ADS-B (RKSO / OSN)
10:41PM 36.1468 126.9772 North 364 419 21,000  Level FlightAware ADS-B (RKSO / OSN)
10:41PM 36.2124 126.9846 North 365 420 21,000  Level FlightAware ADS-B (RKSO / OSN)
10:42PM 36.2785 126.9921 North 365 420 21,000 -480 Level FlightAware ADS-B (RKSO / OSN)
10:43PM 36.3481 126.9998 North 361 415 20,400 -900 Descending FlightAware ADS-B (RKSO / OSN)
10:43PM 36.4138 127.0033 358° North 351 404 19,800 -900 Descending FlightAware ADS-B (RKSO / OSN)
10:44PM 36.4758 127.0007 358° North 346 398 19,200 -1,020 Descending FlightAware ADS-B (RKSO / OSN)
10:45PM 36.5426 126.9985 358° North 353 406 18,500 -1,080 Descending FlightAware ADS-B (RKSO / OSN)
10:45PM 36.6089 126.9959 358° North 352 405 17,800 -1,080 Descending FlightAware ADS-B (RKSO / OSN)
10:46PM 36.6672 127.0012 25° Northeast 356 410 17,100 -1,020 Descending FlightAware ADS-B (RKSO / OSN)
10:46PM 36.6935 127.0240 45° Northeast 363 418 16,800 -1,020 Descending FlightAware ADS-B (RKSO / OSN)
10:47PM 36.7450 127.0897 46° Northeast 355 409 16,100 -1,440 Descending FlightAware ADS-B (RKSO / OSN)
10:48PM 36.7883 127.1439 45° Northeast 348 400 14,900 -1,680 Descending FlightAware ADS-B (RKSO / OSN)
10:48PM 36.8332 127.1999 45° Northeast 338 389 13,900 -1,080 Descending FlightAware ADS-B (RKSO / OSN)
10:49PM 36.8801 127.2571 44° Northeast 337 388 13,500 -480 Descending FlightAware ADS-B (RKSO / OSN)
10:50PM 36.9252 127.3121 44° Northeast 335 386 13,300 -420 Descending FlightAware ADS-B (RKSO / OSN)
10:50PM 36.9678 127.3642 45° Northeast 327 376 13,000 -480 Descending FlightAware ADS-B (RKSO / OSN)
10:51PM 37.0110 127.4176 44° Northeast 312 359 12,700 -540 Descending FlightAware ADS-B (RKSO / OSN)
10:51PM 37.0347 127.4365 20° North 297 342 12,500 -480 Descending FlightAware ADS-B (RKSO / OSN)
10:52PM 37.0599 127.4397 351° North 291 335 12,400 -780 Descending FlightAware ADS-B (RKSO / OSN)
10:52PM 37.0859 127.4257 322° Northwest 289 333 12,000 -1,560 Descending FlightAware ADS-B (RKSO / OSN)
10:52PM 37.0993 127.4073 309° West 284 327 11,500 -1,320 Descending FlightAware ADS-B (RKSO / OSN)
10:53PM 37.1350 127.3539 310° West 277 319 10,700 -720 Descending FlightAware ADS-B (RKSO / OSN)
10:54PM 37.1688 127.3037 310° West 263 303 10,500 -180 Descending FlightAware ADS-B (RKSO / OSN)
10:54PM 37.1986 127.2592 310° West 251 289 10,500 -540 Level FlightAware ADS-B (RKSO / OSN)
10:55PM 37.2218 127.2100 291° West 258 297 9,800 -1,200 Descending FlightAware ADS-B (RKSO / OSN)
10:55PM 37.2309 127.1799 290° West 258 297 9,300 -1,500 Descending FlightAware ADS-B (RKSO / OSN)
10:56PM 37.2392 127.1516 290° West 259 298 8,800 -1,380 Descending FlightAware ADS-B (RKSO / OSN)
10:56PM 37.2477 127.1236 291° West 257 296 8,400 -900 Descending FlightAware ADS-B (RKSO / OSN)
10:56PM 37.2555 127.0984 292° West 243 280 8,200 -1,080 Descending FlightAware ADS-B (RKSO / OSN)
10:57PM 37.2630 127.0749 292° West 238 274 7,700 -1,200 Descending FlightAware ADS-B (RKSO / OSN)
10:57PM 37.2725 127.0454 292° West 227 261 7,400 -1,260 Descending FlightAware ADS-B (RKSO / OSN)
10:57PM 37.2808 127.0239 306° West 223 257 6,900 -1,200 Descending FlightAware ADS-B (RKSO / OSN)
10:58PM 37.2982 127.0101 341° North 207 238 6,600 -1,320 Descending FlightAware ADS-B (RKSO / OSN)
10:58PM 37.3152 127.0034 343° North 203 234 6,000 -1,800 Descending FlightAware ADS-B (RKSO / OSN)
10:58PM 37.3338 126.9965 344° North 200 230 5,400 -2,040 Descending FlightAware ADS-B (RKSO / OSN)
10:59PM 37.3481 126.9914 344° North 202 232 4,700 -2,160 Descending FlightAware ADS-B (RKSO / OSN)
10:59PM 37.3699 126.9832 342° North 206 237 4,000 -1,380 Descending FlightAware ADS-B (RKSO / OSN)
10:59PM 37.3851 126.9772 343° North 199 229 3,800 -240 Descending FlightAware ADS-B (RKSO / OSN)
11:00PM 37.4216 126.9569 322° Northwest 194 223 3,800 -240 Level FlightAware ADS-B (RKSO / OSN)
11:00PM 37.4344 126.9428 317° Northwest 178 205 3,600 -960 Descending FlightAware ADS-B (RKSO / OSN)
11:01PM 37.4452 126.9297 315° West 180 207 3,200 -1,080 Descending FlightAware ADS-B (RKSO / OSN)
11:01PM 37.4580 126.9137 315° West 172 198 2,900 -960 Descending FlightAware ADS-B (RKSO / OSN)
11:01PM 37.4678 126.9013 315° West 163 188 2,600 -1,080 Descending FlightAware ADS-B (RKSO / OSN)
11:04PM 37.5583 126.7906 316° Northwest  Level Estimated
11:05PM 37.5583 126.7906 North  Level Estimated
11:06PM 37.5583 126.7906 North  Level Estimated
11:07PM 37.5583 126.7906 North  Level Estimated
11:08PM 37.5583 126.7906 North  Level Estimated
11:09PM 37.5583 126.7906 North  Level Estimated
11:10PM 37.5583 126.7906 North  Level Estimated
11:11PM 37.5583 126.7906 North  Level Estimated
11:12PM 37.5583 126.7906 North  Level Estimated
11:13PM 37.5583 126.7906 North  Level Estimated
11:14PM 37.5583 126.7906 North  Level Estimated
11:15PM 37.5583 126.7906 North  Level Estimated
11:16PM 37.5583 126.7906 North  Level Estimated